createdAt,value
2022-08-21T00:03:07.155Z,98307.44
2022-08-21T00:06:23.582Z,98299.43
2022-08-21T00:09:39.713Z,98290.02
2022-08-21T00:12:56.871Z,98288.16
2022-08-21T00:16:14.350Z,98286.30
2022-08-21T00:19:30.993Z,98286.53
2022-08-21T00:22:48.226Z,98277.69
2022-08-21T00:26:04.510Z,98279.88
2022-08-21T00:29:20.870Z,98280.95
2022-08-21T00:32:38.386Z,98280.42
2022-08-21T00:35:56.270Z,98278.28
2022-08-21T00:39:14.917Z,98277.73
2022-08-21T00:42:32.038Z,98276.33
2022-08-21T00:45:48.455Z,98272.27
2022-08-21T00:49:05.119Z,98263.93
2022-08-21T00:52:26.403Z,98258.81
2022-08-21T00:55:44.716Z,98255.55
2022-08-21T00:59:04.491Z,98254.46
2022-08-21T01:02:22.007Z,98251.20
2022-08-21T01:05:38.968Z,98257.12
2022-08-21T01:08:55.845Z,98251.44
2022-08-21T01:12:14.034Z,98249.31
2022-08-21T01:15:36.440Z,98247.41
2022-08-21T01:18:53.901Z,98249.54
2022-08-21T01:22:10.311Z,98245.75
2022-08-21T01:25:27.156Z,98255.16
2022-08-21T01:28:47.666Z,98249.47
2022-08-21T01:32:03.859Z,98237.11
2022-08-21T01:35:22.114Z,98224.19
2022-08-21T01:38:38.443Z,98230.93
2022-08-21T01:41:54.612Z,98218.80
2022-08-21T01:45:11.783Z,98212.63
2022-08-21T01:48:28.174Z,98213.13
2022-08-21T01:51:44.684Z,98217.94
2022-08-21T01:55:00.792Z,98217.64
2022-08-21T01:58:17.046Z,98215.48
2022-08-21T02:01:33.254Z,98214.34
2022-08-21T02:04:49.645Z,98214.04
2022-08-21T02:08:06.321Z,98208.36
2022-08-21T02:11:22.533Z,98214.47
2022-08-21T02:14:39.691Z,98207.98
2022-08-21T02:17:59.520Z,98208.74
2022-08-21T02:21:16.752Z,98208.70
2022-08-21T02:24:33.121Z,98197.68
2022-08-21T02:27:55.075Z,98194.77
2022-08-21T02:31:12.171Z,98186.50
2022-08-21T02:34:29.271Z,98186.77
2022-08-21T02:37:55.098Z,98181.09
2022-08-21T02:41:11.722Z,98184.58
2022-08-21T02:44:30.167Z,98181.09
2022-08-21T02:47:46.312Z,98181.88
2022-08-21T02:51:07.449Z,98185.90
2022-08-21T02:54:23.484Z,98182.95
2022-08-21T02:57:39.791Z,98178.93
2022-08-21T03:00:56.216Z,98178.17
2022-08-21T03:04:12.686Z,98181.45
2022-08-21T03:07:28.991Z,98177.70
2022-08-21T03:10:46.668Z,98177.87
2022-08-21T03:14:02.997Z,98187.83
2022-08-21T03:17:19.319Z,98186.84
2022-08-21T03:20:38.542Z,98188.73
2022-08-21T03:23:55.874Z,98192.28
2022-08-21T03:27:12.425Z,98192.85
2022-08-21T03:30:30.177Z,98192.89
2022-08-21T03:33:46.598Z,98199.09
2022-08-21T03:37:03.064Z,98201.80
2022-08-21T03:40:22.625Z,98206.11
2022-08-21T03:43:40.341Z,98208.53
2022-08-21T03:46:56.896Z,98213.42
2022-08-21T03:50:14.900Z,98219.36
2022-08-21T03:53:31.995Z,98218.23
2022-08-21T03:56:48.149Z,98219.06
2022-08-21T04:00:04.321Z,98224.69
2022-08-21T04:03:20.618Z,98219.83
2022-08-21T04:06:37.978Z,98222.26
2022-08-21T04:09:54.455Z,98224.65
2022-08-21T04:13:11.477Z,98225.71
2022-08-21T04:16:27.732Z,98225.48
2022-08-21T04:19:44.051Z,98227.91
2022-08-21T04:23:00.556Z,98232.52
2022-08-21T04:26:17.182Z,98232.00
2022-08-21T04:29:35.172Z,98222.86
2022-08-21T04:32:54.690Z,98226.64
2022-08-21T04:36:12.650Z,98222.13
2022-08-21T04:39:29.762Z,98230.79
2022-08-21T04:42:52.911Z,98231.63
2022-08-21T04:46:09.336Z,98239.73
2022-08-21T04:49:28.393Z,98232.21
2022-08-21T04:52:44.625Z,98238.19
2022-08-21T04:56:02.651Z,98235.49
2022-08-21T04:59:24.661Z,98236.02
2022-08-21T05:02:41.590Z,98242.80
2022-08-21T05:05:58.305Z,98246.05
2022-08-21T05:09:15.596Z,98246.34
2022-08-21T05:12:32.161Z,98250.72
2022-08-21T05:15:48.950Z,98248.88
2022-08-21T05:19:05.023Z,98252.66
2022-08-21T05:22:27.102Z,98251.33
2022-08-21T05:25:44.929Z,98253.22
2022-08-21T05:29:02.861Z,98252.39
2022-08-21T05:32:22.721Z,98262.39
2022-08-21T05:35:40.257Z,98258.63
2022-08-21T05:38:56.697Z,98261.05
2022-08-21T05:42:13.259Z,98258.36
2022-08-21T05:45:43.067Z,98257.85
2022-08-21T05:48:45.918Z,98262.72
2022-08-21T05:52:01.741Z,98259.24
2022-08-21T05:55:18.698Z,98254.14
2022-08-21T05:58:34.713Z,98253.36
2022-08-21T06:01:51.933Z,98258.44
2022-08-21T06:05:08.641Z,98266.26
2022-08-21T06:08:26.700Z,98257.92
2022-08-21T06:11:43.397Z,98265.22
2022-08-21T06:14:59.685Z,98258.77
2022-08-21T06:18:16.705Z,98261.19
2022-08-21T06:21:32.915Z,98251.75
2022-08-21T06:24:48.945Z,98253.66
2022-08-21T06:28:12.034Z,98250.70
2022-08-21T06:31:31.667Z,98259.64
2022-08-21T06:34:49.343Z,98266.89
2022-08-21T06:38:05.728Z,98262.33
2022-08-21T06:41:23.898Z,98269.08
2022-08-21T06:44:39.099Z,98265.56
2022-08-21T06:47:55.037Z,98269.09
2022-08-21T06:51:12.134Z,98275.55
2022-08-21T06:54:28.510Z,98275.56
2022-08-21T06:57:52.399Z,98282.90
2022-08-21T07:01:03.630Z,98279.66
2022-08-21T07:04:21.527Z,98284.53
2022-08-21T07:07:37.747Z,98283.18
2022-08-21T07:10:54.600Z,98276.44
2022-08-21T07:14:10.878Z,98285.60
2022-08-21T07:17:28.840Z,98285.05
2022-08-21T07:20:45.446Z,98281.28
2022-08-21T07:24:02.265Z,98285.61
2022-08-21T07:27:18.542Z,98286.96
2022-08-21T07:30:36.033Z,98282.67
2022-08-21T07:33:53.013Z,98279.70
2022-08-21T07:37:10.062Z,98282.95
2022-08-21T07:40:27.338Z,98289.95
2022-08-21T07:43:45.928Z,98287.25
2022-08-21T07:47:02.617Z,98285.10
2022-08-21T07:50:20.469Z,98285.10
2022-08-21T07:53:36.790Z,98288.91
2022-08-21T07:56:53.101Z,98284.86
2022-08-21T08:00:09.862Z,98300.78
2022-08-21T08:03:28.352Z,98296.17
2022-08-21T08:06:44.843Z,98295.11
2022-08-21T08:10:00.987Z,98284.30
2022-08-21T08:13:17.527Z,98287.83
2022-08-21T08:16:34.145Z,98281.36
2022-08-21T08:19:50.593Z,98281.08
2022-08-21T08:23:07.570Z,98278.38
2022-08-21T08:26:24.497Z,98286.75
2022-08-21T08:29:40.773Z,98282.41
2022-08-21T08:32:59.020Z,98281.38
2022-08-21T08:36:20.991Z,98278.10
2022-08-21T08:39:39.145Z,98281.60
2022-08-21T08:42:57.373Z,98290.76
2022-08-21T08:46:19.665Z,98290.23
2022-08-21T08:49:42.071Z,98279.68
2022-08-21T08:53:05.931Z,98285.05
2022-08-21T08:56:22.212Z,98283.98
2022-08-21T08:59:43.771Z,98276.94
2022-08-21T09:03:04.515Z,98273.16
2022-08-21T09:06:27.520Z,98271.52
2022-08-21T09:09:58.893Z,98275.88
2022-08-21T09:13:20.603Z,98274.23
2022-08-21T09:16:43.254Z,98273.16
2022-08-21T09:20:09.889Z,98271.80
2022-08-21T09:23:35.602Z,98265.29
2022-08-21T09:26:56.897Z,98265.00
2022-08-21T09:30:17.323Z,98265.55
2022-08-21T09:33:33.622Z,98255.50
2022-08-21T09:36:54.264Z,98262.25
2022-08-21T09:40:14.688Z,98257.91
2022-08-21T09:43:32.865Z,98255.11
2022-08-21T09:47:00.459Z,98248.58
2022-08-21T09:50:24.131Z,98253.30
2022-08-21T09:53:44.550Z,98245.07
2022-08-21T09:57:21.178Z,98238.96
2022-08-21T10:00:40.803Z,98242.40
2022-08-21T10:03:59.967Z,98242.80
2022-08-21T10:07:21.885Z,98250.61
2022-08-21T10:10:43.084Z,98251.88
2022-08-21T10:14:05.378Z,98247.23
2022-08-21T10:17:27.707Z,98252.91
2022-08-21T10:20:50.277Z,98256.69
2022-08-21T10:24:30.517Z,98255.02
2022-08-21T10:27:40.340Z,98255.06
2022-08-21T10:31:02.351Z,98250.79
2022-08-21T10:34:30.903Z,98250.78
2022-08-21T10:37:55.532Z,98255.89
2022-08-21T10:41:16.477Z,98251.80
2022-08-21T10:44:40.929Z,98258.65
2022-08-21T10:48:01.254Z,98251.92
2022-08-21T10:51:29.233Z,98253.01
2022-08-21T10:54:48.188Z,98255.94
2022-08-21T10:58:08.078Z,98261.63
2022-08-21T11:01:29.595Z,98270.13
2022-08-21T11:04:51.144Z,98273.23
2022-08-21T11:08:13.896Z,98277.25
2022-08-21T11:11:36.381Z,98275.85
2022-08-21T11:15:00.383Z,98273.50
2022-08-21T11:18:30.328Z,98269.26
2022-08-21T11:21:52.090Z,98272.73
2022-08-21T11:25:13.355Z,98268.92
2022-08-21T11:28:33.725Z,98268.41
2022-08-21T11:32:02.037Z,98261.31
2022-08-21T11:35:25.567Z,98269.32
2022-08-21T11:38:46.467Z,98264.99
2022-08-21T11:42:11.737Z,98274.26
2022-08-21T11:45:33.860Z,98280.28
2022-08-21T11:48:57.426Z,98277.38
2022-08-21T11:52:21.373Z,98273.61
2022-08-21T11:55:42.950Z,98260.98
2022-08-21T11:59:03.875Z,98266.06
2022-08-21T12:02:27.102Z,98270.91
2022-08-21T12:05:49.016Z,98264.39
2022-08-21T12:09:12.686Z,98264.67
2022-08-21T12:12:38.689Z,98258.13
2022-08-21T12:15:55.073Z,98252.39
2022-08-21T12:19:22.064Z,98250.20
2022-08-21T12:22:55.987Z,98243.42
2022-08-21T12:26:31.222Z,98244.17
2022-08-21T12:29:54.453Z,98248.66
2022-08-21T12:33:15.024Z,98249.75
2022-08-21T12:36:38.848Z,98247.78
2022-08-21T12:39:59.226Z,98252.86
2022-08-21T12:43:20.601Z,98256.89
2022-08-21T12:46:43.437Z,98250.92
2022-08-21T12:50:08.601Z,98248.71
2022-08-21T12:53:32.089Z,98245.13
2022-08-21T12:56:48.286Z,98251.92
2022-08-21T13:00:11.162Z,98246.45
2022-08-21T13:03:29.361Z,98249.45
2022-08-21T13:06:50.636Z,98261.18
2022-08-21T13:10:11.996Z,98259.65
2022-08-21T13:13:32.197Z,98247.83
2022-08-21T13:16:49.326Z,98236.45
2022-08-21T13:20:09.825Z,98235.12
2022-08-21T13:23:34.717Z,98233.72
2022-08-21T13:26:51.092Z,98236.80
2022-08-21T13:30:25.972Z,98234.89
2022-08-21T13:33:43.531Z,98254.94
2022-08-21T13:37:04.941Z,98250.08
2022-08-21T13:40:30.016Z,98249.25
2022-08-21T13:43:51.159Z,98248.42
2022-08-21T13:47:11.160Z,98261.12
2022-08-21T13:50:31.790Z,98279.56
2022-08-21T13:53:57.526Z,98278.48
2022-08-21T13:57:23.845Z,98282.02
2022-08-21T14:00:45.204Z,98277.14
2022-08-21T14:04:05.566Z,98269.03
2022-08-21T14:07:30.151Z,98267.66
2022-08-21T14:10:57.501Z,98265.50
2022-08-21T14:14:18.177Z,98263.88
2022-08-21T14:17:43.539Z,98259.29
2022-08-21T14:24:21.092Z,98252.05
2022-08-21T14:27:41.344Z,98257.22
2022-08-21T14:30:58.443Z,98254.00
2022-08-21T14:34:19.294Z,98266.44
2022-08-21T14:37:34.011Z,98269.98
2022-08-21T14:40:53.873Z,98269.45
2022-08-21T14:44:11.335Z,98276.48
2022-08-21T14:47:27.601Z,98272.95
2022-08-21T14:50:44.261Z,98275.64
2022-08-21T14:54:00.535Z,98272.41
2022-08-21T14:57:19.445Z,98270.80
2022-08-21T15:00:36.499Z,98284.31
2022-08-21T15:03:54.322Z,98281.89
2022-08-21T15:07:11.205Z,98279.44
2022-08-21T15:10:27.826Z,98286.75
2022-08-21T15:13:44.898Z,98289.73
2022-08-21T15:17:01.805Z,98287.54
2022-08-21T15:20:21.535Z,98291.08
2022-08-21T15:23:39.838Z,98298.91
2022-08-21T15:26:57.931Z,98303.75
2022-08-21T15:30:19.406Z,98309.40
2022-08-21T15:33:35.692Z,98311.02
2022-08-21T15:36:51.842Z,98319.63
2022-08-21T15:40:11.510Z,98335.78
2022-08-21T15:43:34.564Z,98325.70
2022-08-21T15:46:51.569Z,98331.54
2022-08-21T15:50:07.780Z,98332.00
2022-08-21T15:53:24.166Z,98337.37
2022-08-21T15:56:45.946Z,98348.53
2022-08-21T16:00:08.679Z,98351.91
2022-08-21T16:03:28.227Z,98361.24
2022-08-21T16:06:53.417Z,98350.09
2022-08-21T16:10:04.443Z,98357.83
2022-08-21T16:13:28.014Z,98348.80
2022-08-21T16:16:47.197Z,98342.27
2022-08-21T16:20:03.647Z,98337.05
2022-08-21T16:23:21.078Z,98330.42
2022-08-21T16:26:38.120Z,98319.30
2022-08-21T16:29:55.084Z,98309.29
2022-08-21T16:33:13.313Z,98301.54
2022-08-21T16:36:30.820Z,98312.92
2022-08-21T16:39:47.838Z,98314.44
2022-08-21T16:43:06.055Z,98322.13
2022-08-21T16:46:25.550Z,98315.59
2022-08-21T16:49:42.221Z,98325.61
2022-08-21T16:52:58.927Z,98332.30
2022-08-21T16:56:16.301Z,98313.97
2022-08-21T16:59:32.721Z,98320.80
2022-08-21T17:02:54.211Z,98325.41
2022-08-21T17:06:15.509Z,98320.75
2022-08-21T17:09:31.912Z,98309.36
2022-08-21T17:12:51.531Z,98315.72
2022-08-21T17:16:08.598Z,98320.33
2022-08-21T17:19:29.013Z,98330.84
2022-08-21T17:22:45.345Z,98337.59
2022-08-21T17:26:18.259Z,98339.48
2022-08-21T17:29:41.324Z,98349.33
2022-08-21T17:33:05.011Z,98346.09
2022-08-21T17:36:23.608Z,98350.81
2022-08-21T17:39:46.698Z,98343.01
2022-08-21T17:43:08.737Z,98355.77
2022-08-21T17:46:41.081Z,98363.25
2022-08-21T17:51:11.822Z,98362.00
2022-08-21T18:15:33.390Z,98368.00
2022-08-21T18:23:02.171Z,98372.39
2022-08-21T18:27:08.757Z,98391.38
2022-08-21T18:46:27.259Z,98381.23
2022-08-21T18:49:45.315Z,98379.39
2022-08-21T18:53:07.974Z,98381.02
2022-08-21T18:56:22.810Z,98385.80
2022-08-21T18:59:42.915Z,98387.19
2022-08-21T19:03:00.302Z,98387.68
2022-08-21T19:06:17.651Z,98383.95
2022-08-21T19:09:37.792Z,98386.27
2022-08-21T19:12:54.588Z,98385.43
2022-08-21T19:16:12.787Z,98381.91
2022-08-21T19:19:29.915Z,98383.45
2022-08-21T19:23:03.233Z,98388.58
2022-08-21T19:26:10.671Z,98393.84
2022-08-21T19:29:34.607Z,98385.37
2022-08-21T19:32:51.008Z,98383.63
2022-08-21T19:36:09.521Z,98382.34
2022-08-21T19:39:27.059Z,98376.36
2022-08-21T19:42:44.896Z,98370.91
2022-08-21T19:46:03.686Z,98373.25
2022-08-21T19:49:23.909Z,98371.16
2022-08-21T19:52:40.308Z,98387.00
2022-08-21T19:55:58.600Z,98373.59
2022-08-21T19:59:15.408Z,98387.70
2022-08-21T20:02:33.628Z,98378.37
2022-08-21T20:05:50.505Z,98374.30
2022-08-21T20:09:08.324Z,98365.20
2022-08-21T20:12:24.945Z,98367.42
2022-08-21T20:15:41.689Z,98365.05
2022-08-21T20:18:58.546Z,98368.69
2022-08-21T20:22:15.707Z,98375.22
2022-08-21T20:25:33.087Z,98376.17
2022-08-21T20:28:51.613Z,98378.02
2022-08-21T20:32:12.259Z,98366.25
2022-08-21T20:35:26.921Z,98359.41
2022-08-21T20:38:42.974Z,98363.13
2022-08-21T20:42:00.213Z,98350.56
2022-08-21T20:45:19.428Z,98348.92
2022-08-21T20:48:49.040Z,98358.36
2022-08-21T20:52:01.004Z,98356.97
2022-08-21T20:55:29.123Z,98362.33
2022-08-21T20:58:46.033Z,98356.63
2022-08-21T21:02:07.206Z,98359.11
2022-08-21T21:05:30.527Z,98369.00
2022-08-21T21:08:52.895Z,98362.75
2022-08-21T21:12:13.431Z,98362.61
2022-08-21T21:15:34.458Z,98357.49
2022-08-21T21:18:55.366Z,98353.31
2022-08-21T21:22:16.399Z,98351.19
2022-08-21T21:29:02.067Z,98355.05
2022-08-21T21:32:20.196Z,98360.62
2022-08-21T21:35:41.151Z,98350.39
2022-08-21T21:39:06.041Z,98356.80
2022-08-21T21:42:30.190Z,98358.19
2022-08-21T21:45:55.234Z,98359.23
2022-08-21T21:49:25.447Z,98357.98
2022-08-21T21:53:01.838Z,98340.97
2022-08-21T21:56:27.694Z,98349.94
2022-08-21T21:59:55.709Z,98351.09
2022-08-21T22:03:17.481Z,98348.27
2022-08-21T22:06:39.178Z,98352.12
2022-08-21T22:09:59.860Z,98344.78
2022-08-21T22:13:26.441Z,98349.69
2022-08-21T22:16:42.889Z,98344.44
2022-08-21T22:20:02.748Z,98346.31
2022-08-21T22:23:23.835Z,98342.84
2022-08-21T22:26:48.041Z,98354.61
2022-08-21T22:30:10.125Z,98352.06
2022-08-21T22:33:32.393Z,98346.33
2022-08-21T22:36:52.032Z,98353.56
2022-08-21T22:40:10.268Z,98348.09
2022-08-21T22:43:30.112Z,98352.28
2022-08-21T22:46:55.536Z,98356.97
2022-08-21T22:50:16.744Z,98358.47
2022-08-21T22:53:36.710Z,98353.70
2022-08-21T22:57:03.086Z,98347.65
2022-08-21T23:00:23.852Z,98346.13
2022-08-21T23:03:50.147Z,98343.44
2022-08-21T23:07:08.476Z,98349.28
2022-08-21T23:10:35.915Z,98344.03
2022-08-21T23:13:54.589Z,98346.13
2022-08-21T23:17:15.007Z,98346.02
2022-08-21T23:20:47.237Z,98344.73
2022-08-21T23:24:19.143Z,98347.65
2022-08-21T23:27:45.977Z,98351.13
2022-08-21T23:31:10.790Z,98344.48
2022-08-21T23:34:33.805Z,98350.99
2022-08-21T23:37:56.847Z,98352.38
2022-08-21T23:41:33.965Z,98343.89
2022-08-21T23:44:51.083Z,98342.14
2022-08-21T23:48:21.532Z,98324.19
2022-08-21T23:51:39.684Z,98337.94
2022-08-21T23:55:09.602Z,98330.39
2022-08-21T23:58:37.698Z,98330.39
